• Join FlightAware (Why Join?)
  • Login
  • US Flag 
12:06PM EST


 

Airport Tracker/Info


-or-


 

Live Flight TrackerFlight Track Log ✈ CDG4736 ✈ 30-Apr-2014 ✈ ZSFZ / FOC - ZSJN / TNA

Flight Track Log - Related Links

Times and Time Zones

All times are in EDT time to prevent confusion due to time zone crossing. See the CDG4736 flight status page for this flight to view local times or setup timezone preferences in your user account.

Time Position Orientation Groundspeed Altitude Reporting Facility
EDT Latitude Longitude Course Direction KTS MPH feet Rate Location/Type
08:43AM 26.8103 119.4867 350° North  Level Estimated
08:44AM 26.9197 119.4644 350° North  Level Estimated
08:45AM 27.0291 119.4421 350° North  Level Estimated
08:46AM 27.1385 119.4198 350° North  Level Estimated
08:47AM 27.2479 119.3974 350° North  Level Estimated
08:48AM 27.3572 119.3750 350° North  Level Estimated
08:49AM 27.4666 119.3525 350° North  Level Estimated
08:50AM 27.5760 119.3300 350° North  Level Estimated
08:51AM 27.6854 119.3074 350° North  Level Estimated
08:52AM 27.7947 119.2848 350° North  Level Estimated
08:53AM 27.9041 119.2621 350° North  Level Estimated
08:54AM 28.0134 119.2394 350° North  Level Estimated
08:55AM 28.1228 119.2167 350° North  Level Estimated
08:56AM 28.2321 119.1939 350° North  Level Estimated
08:57AM 28.3415 119.1710 350° North  Level Estimated
08:58AM 28.4508 119.1481 350° North  Level Estimated
08:59AM 28.5602 119.1252 350° North  Level Estimated
09:00AM 28.6695 119.1022 350° North  Level Estimated
09:01AM 28.7788 119.0792 350° North  Level Estimated
09:02AM 28.8881 119.0561 350° North  Level Estimated
09:03AM 28.9975 119.0330 350° North  Level Estimated
09:04AM 29.1068 119.0098 350° North  Level Estimated
09:05AM 29.2161 118.9865 349° North  Level Estimated
09:06AM 29.3254 118.9633 349° North  Level Estimated
09:07AM 29.4347 118.9399 349° North  Level Estimated
09:08AM 29.5440 118.9165 349° North  Level Estimated
09:09AM 29.6533 118.8931 349° North  Level Estimated
09:10AM 29.7626 118.8696 349° North  Level Estimated
09:11AM 29.8719 118.8461 349° North  Level Estimated
09:12AM 29.9812 118.8225 349° North  Level Estimated
09:13AM 30.0905 118.7989 349° North  Level Estimated
09:14AM 30.1997 118.7752 349° North  Level Estimated
09:15AM 30.3090 118.7514 349° North  Level Estimated
09:16AM 30.4183 118.7277 349° North  Level Estimated
09:17AM 30.5275 118.7038 349° North  Level Estimated
09:18AM 30.6368 118.6799 349° North  Level Estimated
09:19AM 30.7460 118.6560 349° North  Level Estimated
09:20AM 30.8553 118.6319 349° North  Level Estimated
09:21AM 30.9645 118.6079 349° North  Level Estimated
09:22AM 31.0738 118.5838 349° North  Level Estimated
09:23AM 31.1830 118.5596 349° North  Level Estimated
09:24AM 31.2922 118.5353 349° North  Level Estimated
09:25AM 31.4015 118.5111 349° North  Level Estimated
09:26AM 31.5107 118.4867 349° North  Level Estimated
09:27AM 31.6199 118.4623 349° North  Level Estimated
09:28AM 31.7291 118.4379 349° North  Level Estimated
09:29AM 31.8383 118.4133 349° North  Level Estimated
09:30AM 31.9475 118.3888 349° North  Level Estimated
09:31AM 32.0567 118.3641 349° North  Level Estimated
09:32AM 32.1659 118.3394 349° North  Level Estimated
09:33AM 32.2751 118.3147 349° North  Level Estimated
09:34AM 32.3843 118.2899 349° North  Level Estimated
09:35AM 32.4935 118.2650 349° North  Level Estimated
09:36AM 32.6027 118.2401 349° North  Level Estimated
09:37AM 32.7118 118.2151 349° North  Level Estimated
09:38AM 32.8210 118.1900 349° North  Level Estimated
09:39AM 32.9302 118.1649 349° North  Level Estimated
09:40AM 33.0393 118.1397 349° North  Level Estimated
09:41AM 33.1485 118.1145 349° North  Level Estimated
09:42AM 33.2576 118.0892 349° North  Level Estimated
09:43AM 33.3668 118.0638 349° North  Level Estimated
09:44AM 33.4759 118.0384 349° North  Level Estimated
09:45AM 33.5850 118.0129 349° North  Level Estimated
09:46AM 33.6941 117.9874 349° North  Level Estimated
09:47AM 33.8033 117.9617 349° North  Level Estimated
09:48AM 33.9124 117.9360 349° North  Level Estimated
09:49AM 34.0215 117.9103 349° North  Level Estimated
09:50AM 34.1306 117.8845 349° North  Level Estimated
09:51AM 34.2397 117.8586 349° North  Level Estimated
09:52AM 34.3488 117.8326 349° North  Level Estimated
09:53AM 34.4579 117.8066 349° North  Level Estimated
09:54AM 34.5670 117.7805 349° North  Level Estimated
09:55AM 34.6760 117.7544 349° North  Level Estimated
09:56AM 34.7851 117.7281 349° North  Level Estimated
09:57AM 34.8942 117.7018 349° North  Level Estimated
09:58AM 35.0032 117.6755 349° North  Level Estimated
09:59AM 35.1123 117.6490 349° North  Level Estimated
10:00AM 35.2213 117.6225 349° North  Level Estimated
10:01AM 35.3304 117.5959 349° North  Level Estimated
10:02AM 35.4394 117.5693 349° North  Level Estimated
10:03AM 35.5484 117.5426 349° North  Level Estimated
10:04AM 35.6575 117.5158 349° North  Level Estimated
10:05AM 35.7665 117.4889 349° North  Level Estimated
10:06AM 35.8755 117.4620 349° North  Level Estimated
10:07AM 35.9845 117.4349 349° North  Level Estimated
10:08AM 36.0935 117.4078 349° North  Level Estimated
10:09AM 36.2025 117.3807 349° North  Level Estimated
10:10AM 36.3115 117.3534 349° North  Level Estimated
10:11AM 36.4204 117.3261 349° North  Level Estimated
10:12AM 36.5294 117.2987 349° North  Level Estimated
10:13AM 36.6384 117.2712 349° North  Level Estimated
10:14AM 36.7473 117.2437 349° North  Level Estimated
10:15AM 36.8563 117.2161 349° North  Level Estimated
10:16AM 36.8566 117.2160 349° North  Level Estimated
10:17AM 36.8566 117.2160 North  Level Estimated
10:18AM 36.8566 117.2160 North  Level Estimated
10:19AM 36.8566 117.2160 North  Level Estimated
10:20AM 36.8566 117.2160 North  Level Estimated
10:21AM 36.8566 117.2160 North  Level Estimated
10:22AM 36.8566 117.2160 North  Level Estimated
10:23AM 36.8566 117.2160 North  Level Estimated
10:24AM 36.8566 117.2160 North  Level Estimated
10:25AM 36.8566 117.2160 North  Level Estimated
10:26AM 36.8566 117.2160 North  Level Estimated
10:27AM 36.8566 117.2160 North  Level Estimated
10:28AM 36.8566 117.2160 North  Level Estimated
10:29AM 36.8566 117.2160 North  Level Estimated
10:30AM 36.8566 117.2160 North  Level Estimated
10:31AM 36.8566 117.2160 North  Level Estimated